Time;durP1;ratioP1;P1;durP2;ratioP2;P2;SDS_P1;SDS_P2;PMS_P1;PMS_P2;Temp;Humidity;BMP_temperature;BMP_pressure;BME280_temperature;BME280_humidity;BME280_pressure;Samples;Min_cycle;Max_cycle;Signal;HPM_P1;HPM_P2
2023/06/20 00:01:46;;;;;;;31.70;15.30;;;;;;;;;;6168112;23;20020;-94
2023/06/20 00:04:15;;;;;;;31.63;15.48;;;;;;;;;;6119028;23;20009;-95
2023/06/20 00:06:46;;;;;;;27.35;14.25;;;;;;;;;;6118092;23;20099;-95
2023/06/20 00:09:13;;;;;;;27.15;13.63;;;;;;;;;;6117351;23;20033;-95
2023/06/20 00:11:39;;;;;;;33.08;14.30;;;;;;;;;;6117024;23;20017;-95
2023/06/20 00:14:15;;;;;;;27.88;13.27;;;;;;;;;;6137061;23;20031;-95
2023/06/20 00:16:42;;;;;;;35.38;15.23;;;;;;;;;;6162507;23;20009;-94
2023/06/20 00:19:17;;;;;;;27.25;14.57;;;;;;;;;;6112192;23;20057;-95
2023/06/20 00:24:28;;;;;;;30.95;13.13;;;;;;;;;;6140864;23;20085;-94
2023/06/20 00:26:56;;;;;;;28.70;14.93;;;;;;;;;;6110774;23;20201;-95
2023/06/20 00:29:41;;;;;;;28.95;14.00;;;;;;;;;;6138104;23;20017;-95
2023/06/20 00:32:14;;;;;;;28.80;13.43;;;;;;;;;;6188521;22;20025;-95
2023/06/20 00:34:40;;;;;;;27.45;14.18;;;;;;;;;;6166978;23;20017;-95
2023/06/20 00:37:06;;;;;;;37.63;15.55;;;;;;;;;;6136713;23;20631;-95
2023/06/20 00:39:33;;;;;;;28.42;14.63;;;;;;;;;;6138604;23;20060;-96
2023/06/20 00:42:00;;;;;;;36.28;14.68;;;;;;;;;;6136475;23;20051;-92
2023/06/20 00:44:28;;;;;;;30.98;14.48;;;;;;;;;;6135897;23;20037;-95
2023/06/20 00:46:55;;;;;;;30.85;15.02;;;;;;;;;;6136825;23;20016;-95
2023/06/20 00:50:15;;;;;;;;;;;;;;;;;;;;;
2023/06/20 00:52:31;;;;;;;29.05;13.82;;;;;;;;;;6088031;23;20023;-94
2023/06/20 00:54:58;;;;;;;33.53;15.20;;;;;;;;;;6133962;23;20009;-94
2023/06/20 00:57:33;;;;;;;33.65;13.60;;;;;;;;;;6134564;23;20068;-94
2023/06/20 01:00:20;;;;;;;32.47;14.43;;;;;;;;;;6160162;23;20005;-94
2023/06/20 01:02:49;;;;;;;29.55;13.82;;;;;;;;;;6157784;23;20021;-94
2023/06/20 01:05:16;;;;;;;24.92;13.00;;;;;;;;;;6137271;23;20013;-94
2023/06/20 01:07:46;;;;;;;25.45;13.32;;;;;;;;;;6184851;23;20450;-95
2023/06/20 01:10:21;;;;;;;21.95;12.90;;;;;;;;;;6158973;23;20009;-95
2023/06/20 01:13:21;;;;;;;20.80;12.40;;;;;;;;;;6183103;23;20009;-93
2023/06/20 01:16:10;;;;;;;23.65;11.65;;;;;;;;;;6109525;23;20013;-94
2023/06/20 01:19:12;;;;;;;24.20;11.70;;;;;;;;;;6070691;23;20042;-94
2023/06/20 01:21:42;;;;;;;21.45;11.15;;;;;;;;;;6042891;23;20434;-94
2023/06/20 01:24:29;;;;;;;21.08;11.00;;;;;;;;;;6183063;23;20005;-95
2023/06/20 01:27:01;;;;;;;20.58;11.32;;;;;;;;;;6182996;23;20005;-94
2023/06/20 01:30:00;;;;;;;17.77;11.45;;;;;;;;;;6183533;23;20005;-94
2023/06/20 01:32:28;;;;;;;19.02;11.15;;;;;;;;;;6109236;23;20056;-96
2023/06/20 01:35:08;;;;;;;21.65;11.15;;;;;;;;;;6183680;23;20023;-96
2023/06/20 01:37:36;;;;;;;19.30;11.13;;;;;;;;;;6157341;23;20462;-95
2023/06/20 01:40:05;;;;;;;22.17;11.55;;;;;;;;;;6158828;23;20011;-95
2023/06/20 01:42:33;;;;;;;27.75;10.82;;;;;;;;;;6183764;23;20028;-95
2023/06/20 01:45:02;;;;;;;19.70;11.18;;;;;;;;;;6181941;23;20013;-95
2023/06/20 01:47:30;;;;;;;18.17;10.20;;;;;;;;;;6183264;23;20036;-94
2023/06/20 01:49:59;;;;;;;17.98;10.20;;;;;;;;;;6184712;23;20012;-94
2023/06/20 01:52:26;;;;;;;26.60;10.48;;;;;;;;;;6183715;23;20337;-95
2023/06/20 01:54:55;;;;;;;20.20;9.80;;;;;;;;;;6183901;23;20016;-95
2023/06/20 01:57:42;;;;;;;22.38;10.15;;;;;;;;;;6160329;23;20012;-95
2023/06/20 02:00:11;;;;;;;23.13;11.00;;;;;;;;;;6159025;23;20005;-95
2023/06/20 02:02:38;;;;;;;20.08;9.93;;;;;;;;;;6158968;23;20013;-95
2023/06/20 02:05:07;;;;;;;22.83;10.88;;;;;;;;;;6135459;23;20258;-95
2023/06/20 02:07:34;;;;;;;21.13;11.07;;;;;;;;;;6160366;23;20004;-95
2023/06/20 02:10:01;;;;;;;18.65;10.32;;;;;;;;;;6134829;23;20013;-96
2023/06/20 02:12:31;;;;;;;20.23;10.20;;;;;;;;;;6158189;23;20047;-95
2023/06/20 02:15:11;;;;;;;16.77;9.77;;;;;;;;;;6135001;23;20035;-95
2023/06/20 02:17:40;;;;;;;17.83;10.52;;;;;;;;;;6158609;23;20006;-96
2023/06/20 02:20:07;;;;;;;18.70;10.30;;;;;;;;;;6135272;23;20348;-95
2023/06/20 02:22:40;;;;;;;22.48;10.35;;;;;;;;;;6184097;23;20001;-96
2023/06/20 02:25:09;;;;;;;16.88;10.02;;;;;;;;;;6184185;23;20014;-95
2023/06/20 02:27:39;;;;;;;16.83;10.10;;;;;;;;;;6158912;23;20008;-95
2023/06/20 02:30:08;;;;;;;17.42;9.43;;;;;;;;;;6188374;23;20099;-95
2023/06/20 02:32:52;;;;;;;;;;;;;;;;;;;;;
2023/06/20 02:38:28;;;;;;;19.67;10.50;;;;;;;;;;6162291;23;20423;-95
2023/06/20 02:40:55;;;;;;;21.17;11.88;;;;;;;;;;6185543;23;20001;-95
2023/06/20 02:43:37;;;;;;;17.38;10.32;;;;;;;;;;6183890;23;20092;-96
2023/06/20 02:46:10;;;;;;;21.27;11.13;;;;;;;;;;6136949;23;20009;-95
2023/06/20 02:48:41;;;;;;;20.85;11.70;;;;;;;;;;6159859;23;20009;-96
2023/06/20 02:51:16;;;;;;;20.98;11.75;;;;;;;;;;6161182;23;20016;-95
2023/06/20 02:53:45;;;;;;;28.77;12.57;;;;;;;;;;6185993;23;20379;-96
2023/06/20 02:56:14;;;;;;;21.60;12.98;;;;;;;;;;6187008;23;20009;-95
2023/06/20 02:58:49;;;;;;;20.23;11.48;;;;;;;;;;6192261;23;20001;-95
2023/06/20 03:01:19;;;;;;;18.95;11.52;;;;;;;;;;6185030;23;20012;-95
2023/06/20 03:03:46;;;;;;;22.52;12.27;;;;;;;;;;6184753;23;20001;-94
2023/06/20 03:06:17;;;;;;;20.48;11.25;;;;;;;;;;6159927;23;20028;-96
2023/06/20 03:08:49;;;;;;;24.10;11.88;;;;;;;;;;6189415;23;20065;-95
2023/06/20 03:11:17;;;;;;;29.83;13.48;;;;;;;;;;6187721;23;20016;-95
2023/06/20 03:13:44;;;;;;;22.98;12.65;;;;;;;;;;6186184;23;20013;-96
2023/06/20 03:16:47;;;;;;;25.23;12.35;;;;;;;;;;6137067;23;20028;-95
2023/06/20 03:19:14;;;;;;;22.75;12.23;;;;;;;;;;6112001;23;20005;-95
2023/06/20 03:21:44;;;;;;;28.00;12.95;;;;;;;;;;6186697;23;20043;-93
2023/06/20 03:24:15;;;;;;;20.98;12.88;;;;;;;;;;6139643;23;20017;-95
2023/06/20 03:26:41;;;;;;;20.33;11.55;;;;;;;;;;6164053;23;20027;-95
2023/06/20 03:29:22;;;;;;;25.52;12.95;;;;;;;;;;6163654;23;20451;-95
2023/06/20 03:31:51;;;;;;;23.90;13.27;;;;;;;;;;6162157;23;20024;-95
2023/06/20 03:34:18;;;;;;;27.40;13.32;;;;;;;;;;6140090;23;20024;-95
2023/06/20 03:36:44;;;;;;;22.45;12.27;;;;;;;;;;6166381;23;20012;-95
2023/06/20 03:39:16;;;;;;;23.75;11.82;;;;;;;;;;6165100;23;20533;-95
2023/06/20 03:41:44;;;;;;;21.52;13.82;;;;;;;;;;6188864;23;20004;-94
2023/06/20 03:44:10;;;;;;;24.38;13.02;;;;;;;;;;6188353;23;20005;-95
2023/06/20 03:46:42;;;;;;;24.13;12.57;;;;;;;;;;6135784;23;20013;-95
2023/06/20 03:49:08;;;;;;;25.63;13.80;;;;;;;;;;6139749;23;20013;-95
2023/06/20 03:51:35;;;;;;;29.92;13.15;;;;;;;;;;6187644;23;20027;-95
2023/06/20 03:54:01;;;;;;;27.88;12.98;;;;;;;;;;6139177;23;20334;-95
2023/06/20 03:56:33;;;;;;;24.50;12.65;;;;;;;;;;6189190;23;20016;-96
2023/06/20 03:59:00;;;;;;;23.08;13.50;;;;;;;;;;6188447;23;20505;-95
2023/06/20 04:01:30;;;;;;;21.42;13.00;;;;;;;;;;6187849;23;20001;-96
2023/06/20 04:04:00;;;;;;;18.27;12.07;;;;;;;;;;6139562;23;20160;-96
2023/06/20 04:06:30;;;;;;;24.77;13.43;;;;;;;;;;6186798;23;20005;-95
2023/06/20 04:08:57;;;;;;;25.92;13.93;;;;;;;;;;6139300;23;20001;-95
2023/06/20 04:11:26;;;;;;;19.80;12.75;;;;;;;;;;6188307;23;20012;-95
2023/06/20 04:13:53;;;;;;;19.65;12.25;;;;;;;;;;6139472;23;20016;-95
2023/06/20 04:16:19;;;;;;;18.33;11.75;;;;;;;;;;6138728;23;20020;-96
2023/06/20 04:18:45;;;;;;;21.08;12.30;;;;;;;;;;6140303;23;20112;-95
2023/06/20 04:21:12;;;;;;;22.42;12.00;;;;;;;;;;6164130;23;20009;-96
2023/06/20 04:23:38;;;;;;;17.92;10.48;;;;;;;;;;6166575;23;20015;-94
2023/06/20 04:26:05;;;;;;;20.10;10.80;;;;;;;;;;6139998;23;20092;-95
2023/06/20 04:28:31;;;;;;;22.95;11.55;;;;;;;;;;6143789;23;20036;-95
2023/06/20 04:30:59;;;;;;;22.77;11.10;;;;;;;;;;6194060;23;20005;-95
2023/06/20 04:33:33;;;;;;;18.30;10.55;;;;;;;;;;6150529;23;20036;-95
2023/06/20 04:36:00;;;;;;;18.92;10.65;;;;;;;;;;6197767;23;20021;-95
2023/06/20 04:38:29;;;;;;;19.77;10.88;;;;;;;;;;6149898;23;20060;-96
2023/06/20 04:40:56;;;;;;;18.88;11.07;;;;;;;;;;6146778;23;20064;-95
2023/06/20 04:43:22;;;;;;;14.95;10.23;;;;;;;;;;6146763;23;20009;-95
2023/06/20 04:45:56;;;;;;;23.38;11.75;;;;;;;;;;6147950;23;20009;-95
2023/06/20 04:48:26;;;;;;;23.27;11.88;;;;;;;;;;6173930;23;20025;-96
2023/06/20 04:50:55;;;;;;;23.58;11.57;;;;;;;;;;6196792;23;20024;-95
2023/06/20 04:53:28;;;;;;;20.33;11.95;;;;;;;;;;6190724;23;20040;-95
2023/06/20 04:55:55;;;;;;;21.80;11.65;;;;;;;;;;6189592;23;20005;-90
2023/06/20 04:58:28;;;;;;;22.10;11.02;;;;;;;;;;6187136;23;20510;-91
2023/06/20 05:00:55;;;;;;;20.38;11.18;;;;;;;;;;6182860;23;20424;-91
2023/06/20 05:03:31;;;;;;;19.00;10.88;;;;;;;;;;6158964;23;20112;-91
2023/06/20 05:06:01;;;;;;;18.50;11.00;;;;;;;;;;6158562;23;20334;-91
2023/06/20 05:08:28;;;;;;;16.67;10.25;;;;;;;;;;6132102;23;20064;-91
2023/06/20 05:10:54;;;;;;;19.77;11.57;;;;;;;;;;6158722;23;20466;-91
2023/06/20 05:13:24;;;;;;;23.20;11.32;;;;;;;;;;6134588;23;20072;-89
2023/06/20 05:15:50;;;;;;;17.98;10.98;;;;;;;;;;6136820;23;20019;-89
2023/06/20 05:18:21;;;;;;;19.38;11.07;;;;;;;;;;6158084;23;20032;-89
2023/06/20 05:20:53;;;;;;;22.35;10.95;;;;;;;;;;6133243;23;20087;-89
2023/06/20 05:23:22;;;;;;;20.75;10.60;;;;;;;;;;6183533;23;20005;-89
2023/06/20 05:25:49;;;;;;;21.45;11.32;;;;;;;;;;6184553;23;20001;-89
2023/06/20 05:28:15;;;;;;;27.15;11.68;;;;;;;;;;6136480;23;20013;-87
2023/06/20 05:30:41;;;;;;;20.70;11.70;;;;;;;;;;6156702;23;20013;-88
2023/06/20 05:33:08;;;;;;;19.83;10.68;;;;;;;;;;6134313;23;20028;-88
2023/06/20 05:35:36;;;;;;;28.02;11.80;;;;;;;;;;6184144;23;20009;-90
2023/06/20 05:38:06;;;;;;;18.63;9.95;;;;;;;;;;6133684;23;20024;-90
2023/06/20 05:40:32;;;;;;;18.17;10.95;;;;;;;;;;6135880;23;20092;-90
2023/06/20 05:42:58;;;;;;;19.63;10.27;;;;;;;;;;6162565;23;20009;-89
2023/06/20 05:45:25;;;;;;;18.80;10.25;;;;;;;;;;6135988;23;20009;-89
2023/06/20 05:47:51;;;;;;;25.40;10.60;;;;;;;;;;6137216;23;20044;-90
2023/06/20 05:50:18;;;;;;;19.67;10.80;;;;;;;;;;6184012;23;20035;-89
2023/06/20 05:52:44;;;;;;;23.98;10.23;;;;;;;;;;6136910;23;20016;-89
2023/06/20 05:55:12;;;;;;;16.23;10.63;;;;;;;;;;6189893;23;20017;-90
2023/06/20 05:57:45;;;;;;;19.77;10.63;;;;;;;;;;6159866;23;20067;-90
2023/06/20 06:00:12;;;;;;;22.85;10.25;;;;;;;;;;6188258;23;20032;-91
2023/06/20 06:02:45;;;;;;;18.90;11.25;;;;;;;;;;6185326;23;20005;-89
2023/06/20 06:05:11;;;;;;;19.10;11.18;;;;;;;;;;6182200;23;20017;-90
2023/06/20 06:07:42;;;;;;;20.02;11.40;;;;;;;;;;6134568;23;20016;-89
2023/06/20 06:10:08;;;;;;;22.92;12.35;;;;;;;;;;6181596;23;20060;-89
2023/06/20 06:12:36;;;;;;;22.90;11.15;;;;;;;;;;6134449;23;20009;-90
2023/06/20 06:15:03;;;;;;;22.67;12.13;;;;;;;;;;6134071;23;20020;-89
2023/06/20 06:17:34;;;;;;;28.25;11.80;;;;;;;;;;6187483;23;20008;-90
2023/06/20 06:20:03;;;;;;;23.60;12.80;;;;;;;;;;6134294;23;20017;-90
2023/06/20 06:22:30;;;;;;;24.80;11.95;;;;;;;;;;6184758;23;20432;-91
2023/06/20 06:25:09;;;;;;;21.10;11.55;;;;;;;;;;6160854;23;20012;-90
2023/06/20 06:27:46;;;;;;;21.80;11.65;;;;;;;;;;6160721;23;20025;-90
2023/06/20 06:30:15;;;;;;;23.27;11.20;;;;;;;;;;6188840;23;20005;-90
2023/06/20 06:32:49;;;;;;;22.98;11.98;;;;;;;;;;6158168;22;20530;-89
2023/06/20 06:35:24;;;;;;;24.75;11.88;;;;;;;;;;6107552;23;20017;-90
2023/06/20 06:37:52;;;;;;;22.70;11.60;;;;;;;;;;6138345;23;20009;-90
2023/06/20 06:40:28;;;;;;;19.92;11.38;;;;;;;;;;6133708;23;20577;-91
2023/06/20 06:42:57;;;;;;;20.88;10.70;;;;;;;;;;6107204;23;20035;-89
2023/06/20 06:45:26;;;;;;;19.02;11.50;;;;;;;;;;6110129;23;20061;-91
2023/06/20 06:47:52;;;;;;;19.05;11.35;;;;;;;;;;6129389;23;20130;-90
2023/06/20 06:50:19;;;;;;;23.15;11.57;;;;;;;;;;6131521;23;20558;-90
2023/06/20 06:52:51;;;;;;;20.60;12.02;;;;;;;;;;6107078;23;20013;-90
2023/06/20 06:55:18;;;;;;;23.00;13.32;;;;;;;;;;6134909;23;20101;-89
2023/06/20 06:57:44;;;;;;;24.83;12.55;;;;;;;;;;6134582;23;20036;-90
2023/06/20 07:00:17;;;;;;;22.67;11.65;;;;;;;;;;6104324;23;20014;-90
2023/06/20 07:02:46;;;;;;;17.55;10.85;;;;;;;;;;6112870;23;20386;-90
2023/06/20 07:08:01;;;;;;;24.15;11.50;;;;;;;;;;6164671;23;20081;-89
2023/06/20 07:10:31;;;;;;;21.67;10.98;;;;;;;;;;6191377;23;20029;-90
2023/06/20 07:13:06;;;;;;;20.30;10.30;;;;;;;;;;6161875;23;20005;-90
2023/06/20 07:18:31;;;;;;;17.38;10.13;;;;;;;;;;6190011;23;20020;-90
2023/06/20 07:20:57;;;;;;;17.17;10.70;;;;;;;;;;6187122;23;20012;-91
2023/06/20 07:23:34;;;;;;;17.63;10.38;;;;;;;;;;6187080;23;20010;-90
2023/06/20 07:26:21;;;;;;;18.30;10.27;;;;;;;;;;6187683;23;20384;-89
2023/06/20 07:28:59;;;;;;;17.25;9.88;;;;;;;;;;6191657;23;20001;-89
2023/06/20 07:31:27;;;;;;;21.05;10.20;;;;;;;;;;6166834;23;20009;-90
2023/06/20 07:33:59;;;;;;;19.92;11.05;;;;;;;;;;6195008;22;20021;-90
2023/06/20 07:36:25;;;;;;;19.65;9.70;;;;;;;;;;6165336;23;20025;-90
2023/06/20 07:38:52;;;;;;;14.40;9.38;;;;;;;;;;6165341;23;20015;-89
2023/06/20 07:41:19;;;;;;;19.02;9.85;;;;;;;;;;6164689;23;20000;-89
2023/06/20 07:43:45;;;;;;;14.40;9.18;;;;;;;;;;6141556;23;20005;-90
2023/06/20 07:46:16;;;;;;;12.73;9.30;;;;;;;;;;6135455;23;20690;-89
2023/06/20 07:48:52;;;;;;;17.30;9.77;;;;;;;;;;6162166;23;20321;-88
2023/06/20 07:51:18;;;;;;;;;;;;;;;;;;6139579;23;20028;-89
2023/06/20 07:53:45;;;;;;;18.40;9.75;;;;;;;;;;6165068;23;20208;-90
2023/06/20 07:56:12;;;;;;;17.08;9.45;;;;;;;;;;6137148;23;20017;-90
2023/06/20 07:58:44;;;;;;;17.92;10.20;;;;;;;;;;6143483;23;20020;-90
2023/06/20 08:01:12;;;;;;;15.25;9.35;;;;;;;;;;6167201;23;20435;-90
2023/06/20 08:03:45;;;;;;;13.70;8.70;;;;;;;;;;6148037;23;20013;-90
2023/06/20 08:06:20;;;;;;;13.35;9.52;;;;;;;;;;6174949;23;20013;-90
2023/06/20 08:08:47;;;;;;;13.30;10.00;;;;;;;;;;6174614;23;20012;-90
2023/06/20 08:11:14;;;;;;;16.50;9.85;;;;;;;;;;6175214;23;20032;-89
2023/06/20 08:13:40;;;;;;;15.60;10.10;;;;;;;;;;6157973;23;20037;-91
2023/06/20 08:16:07;;;;;;;20.75;10.32;;;;;;;;;;6150203;23;20096;-90
2023/06/20 08:18:33;;;;;;;18.10;9.45;;;;;;;;;;6151407;23;19997;-90
2023/06/20 08:20:59;;;;;;;16.40;10.85;;;;;;;;;;6126842;23;20005;-90
2023/06/20 08:23:32;;;;;;;17.55;9.98;;;;;;;;;;6161914;23;20009;-90
2023/06/20 08:26:03;;;;;;;14.45;9.73;;;;;;;;;;6171855;23;20013;-90
2023/06/20 08:28:29;;;;;;;17.25;9.68;;;;;;;;;;6175194;23;19993;-89
2023/06/20 08:30:58;;;;;;;17.92;8.52;;;;;;;;;;6171413;23;20040;-89
2023/06/20 08:36:59;;;;;;;19.13;10.45;;;;;;;;;;5999752;24;20024;-92
2023/06/20 08:42:47;;;;;;;13.57;9.38;;;;;;;;;;5937894;24;20033;-90
2023/06/20 08:45:29;;;;;;;14.80;9.85;;;;;;;;;;5930011;24;20356;-90
2023/06/20 08:47:59;;;;;;;14.88;9.13;;;;;;;;;;5996656;23;20015;-91
2023/06/20 08:50:27;;;;;;;15.23;9.45;;;;;;;;;;6044746;23;20457;-91
2023/06/20 08:55:51;;;;;;;14.03;9.33;;;;;;;;;;6135870;23;20010;-88
2023/06/20 08:58:22;;;;;;;22.83;9.60;;;;;;;;;;6110648;23;20013;-89
2023/06/20 09:00:48;;;;;;;15.23;10.10;;;;;;;;;;6110611;23;20041;-89
2023/06/20 09:03:16;;;;;;;11.90;8.15;;;;;;;;;;6134434;23;20436;-89
2023/06/20 09:05:45;;;;;;;14.70;9.70;;;;;;;;;;6110781;23;20421;-89
2023/06/20 09:08:16;;;;;;;14.45;9.60;;;;;;;;;;6135694;23;20013;-89
2023/06/20 09:10:44;;;;;;;13.35;9.20;;;;;;;;;;6113369;23;20069;-90
2023/06/20 09:13:15;;;;;;;15.18;9.60;;;;;;;;;;6163495;23;20024;-89
2023/06/20 09:15:42;;;;;;;14.43;9.00;;;;;;;;;;6137426;23;20401;-90
2023/06/20 09:18:15;;;;;;;14.30;8.80;;;;;;;;;;6112392;23;20089;-89
2023/06/20 09:20:43;;;;;;;13.93;9.30;;;;;;;;;;6133312;23;20065;-91
2023/06/20 09:23:11;;;;;;;20.30;10.20;;;;;;;;;;6110006;23;20061;-90
2023/06/20 09:25:39;;;;;;;19.25;9.85;;;;;;;;;;6110076;23;20080;-89
2023/06/20 09:28:14;;;;;;;14.55;9.82;;;;;;;;;;6106828;23;20059;-88
2023/06/20 09:30:44;;;;;;;14.30;9.80;;;;;;;;;;6132916;23;20061;-88
2023/06/20 09:33:13;;;;;;;13.50;10.15;;;;;;;;;;6134211;23;20514;-88
2023/06/20 09:35:40;;;;;;;16.85;9.85;;;;;;;;;;6161675;22;20040;-90
2023/06/20 09:38:09;;;;;;;13.20;8.82;;;;;;;;;;6165709;23;20005;-89
2023/06/20 09:41:05;;;;;;;11.88;9.02;;;;;;;;;;6175456;23;20383;-89
2023/06/20 09:43:32;;;;;;;13.57;8.52;;;;;;;;;;6149772;23;20005;-89
2023/06/20 09:45:59;;;;;;;13.00;9.57;;;;;;;;;;6177335;23;20062;-90
2023/06/20 09:48:27;;;;;;;13.07;9.93;;;;;;;;;;6173466;23;20462;-90
2023/06/20 09:50:55;;;;;;;17.23;9.30;;;;;;;;;;6142990;23;20335;-89
2023/06/20 09:53:29;;;;;;;14.45;9.50;;;;;;;;;;6143166;23;20056;-90
2023/06/20 09:55:58;;;;;;;12.10;8.68;;;;;;;;;;6162102;23;20016;-90
2023/06/20 09:58:26;;;;;;;11.52;8.32;;;;;;;;;;6161469;23;20036;-89
2023/06/20 10:00:53;;;;;;;10.68;8.23;;;;;;;;;;6162334;23;20005;-90
2023/06/20 10:03:25;;;;;;;14.90;9.38;;;;;;;;;;6167871;23;20009;-90
2023/06/20 10:06:06;;;;;;;13.32;8.77;;;;;;;;;;6177581;23;20016;-90
2023/06/20 10:09:04;;;;;;;13.02;8.93;;;;;;;;;;6178320;23;20009;-90
2023/06/20 10:12:08;;;;;;;10.93;7.97;;;;;;;;;;6171200;23;20045;-90
2023/06/20 10:18:08;;;;;;;10.80;7.95;;;;;;;;;;6001212;23;20008;-90
2023/06/20 10:24:02;;;;;;;13.27;7.80;;;;;;;;;;6041631;23;20014;-91
2023/06/20 10:26:54;;;;;;;10.02;7.50;;;;;;;;;;6080152;23;20436;-91
2023/06/20 10:30:13;;;;;;;;;;;;;;;;;;;;;
2023/06/20 10:32:15;;;;;;;11.65;6.47;;;;;;;;;;6008052;23;20041;-90
2023/06/20 10:34:41;;;;;;;8.90;6.18;;;;;;;;;;6025348;23;20043;-91
2023/06/20 10:37:38;;;;;;;9.35;5.68;;;;;;;;;;6027874;23;20055;-91
2023/06/20 10:40:08;;;;;;;8.52;6.65;;;;;;;;;;6034732;23;20465;-91
2023/06/20 10:42:38;;;;;;;11.02;6.13;;;;;;;;;;6075174;23;20036;-91
2023/06/20 10:45:38;;;;;;;7.53;6.28;;;;;;;;;;6077627;23;20040;-91
2023/06/20 10:48:20;;;;;;;11.43;6.55;;;;;;;;;;6124445;23;20021;-91
2023/06/20 10:51:07;;;;;;;9.07;6.30;;;;;;;;;;6152337;23;20037;-90
2023/06/20 10:53:37;;;;;;;9.88;6.70;;;;;;;;;;6149908;23;20016;-91
2023/06/20 10:56:22;;;;;;;7.00;5.78;;;;;;;;;;6148787;23;20028;-92
2023/06/20 10:58:50;;;;;;;13.02;6.25;;;;;;;;;;6175062;23;20531;-90
2023/06/20 11:01:22;;;;;;;13.10;6.32;;;;;;;;;;6148786;23;19997;-89
2023/06/20 11:04:07;;;;;;;10.55;6.93;;;;;;;;;;6116326;23;20017;-91
2023/06/20 11:06:40;;;;;;;11.25;6.70;;;;;;;;;;6160394;23;20084;-90
2023/06/20 11:09:19;;;;;;;11.43;6.68;;;;;;;;;;6143118;23;20084;-91
2023/06/20 11:12:09;;;;;;;11.63;6.35;;;;;;;;;;6172232;23;20005;-92
2023/06/20 11:14:40;;;;;;;9.77;6.22;;;;;;;;;;6142372;23;20015;-91
2023/06/20 11:17:07;;;;;;;9.00;5.80;;;;;;;;;;6138315;23;20012;-90
2023/06/20 11:19:34;;;;;;;7.22;5.90;;;;;;;;;;6106325;23;20021;-91
2023/06/20 11:22:01;;;;;;;7.65;5.75;;;;;;;;;;6123190;23;20006;-91
2023/06/20 11:25:07;;;;;;;;;;;;;;;;;;;;;
2023/06/20 11:27:40;;;;;;;9.27;5.65;;;;;;;;;;6144294;23;20013;-91
2023/06/20 11:30:07;;;;;;;9.05;5.45;;;;;;;;;;6139724;23;20245;-90
2023/06/20 11:32:45;;;;;;;12.52;5.85;;;;;;;;;;6091051;23;20147;-90
2023/06/20 11:35:13;;;;;;;9.27;5.60;;;;;;;;;;6139686;23;20544;-89
2023/06/20 11:37:42;;;;;;;7.03;5.93;;;;;;;;;;6170098;23;20004;-91
2023/06/20 11:40:36;;;;;;;7.95;5.85;;;;;;;;;;6139038;23;19998;-90
2023/06/20 11:43:06;;;;;;;7.43;6.25;;;;;;;;;;6142597;23;20064;-90
2023/06/20 11:45:55;;;;;;;9.50;5.82;;;;;;;;;;6170731;23;20071;-92
2023/06/20 11:48:25;;;;;;;6.93;6.22;;;;;;;;;;6140945;23;20024;-91
2023/06/20 11:51:15;;;;;;;12.23;6.88;;;;;;;;;;6167171;23;20013;-90
2023/06/20 11:54:05;;;;;;;7.40;6.18;;;;;;;;;;6150690;23;20018;-91
2023/06/20 11:56:35;;;;;;;13.25;7.70;;;;;;;;;;6165113;23;20055;-91
2023/06/20 11:59:01;;;;;;;7.47;6.32;;;;;;;;;;6138893;23;20029;-91
2023/06/20 12:01:39;;;;;;;;;;;;;;;;;;;;;
2023/06/20 12:04:10;;;;;;;16.20;6.70;;;;;;;;;;6144183;23;20031;-90
2023/06/20 12:06:39;;;;;;;8.50;7.00;;;;;;;;;;6171550;23;20005;-91
2023/06/20 12:09:13;;;;;;;13.48;7.53;;;;;;;;;;6137704;23;20017;-91
2023/06/20 12:12:12;;;;;;;10.80;7.30;;;;;;;;;;6165112;23;20028;-91
2023/06/20 12:14:52;;;;;;;;;;;;;;;;;;;;;
2023/06/20 12:17:20;;;;;;;8.38;6.82;;;;;;;;;;6172138;23;20029;-91
2023/06/20 12:20:05;;;;;;;12.80;7.40;;;;;;;;;;6168448;23;20012;-91
2023/06/20 12:22:32;;;;;;;12.48;6.95;;;;;;;;;;6173657;23;20064;-91
2023/06/20 12:26:01;;;;;;;8.35;6.97;;;;;;;;;;6174134;23;20036;-90
2023/06/20 12:28:11;;;;;;;11.35;7.30;;;;;;;;;;6175408;23;20017;-90
2023/06/20 12:30:41;;;;;;;10.20;7.18;;;;;;;;;;6168725;23;20021;-90
2023/06/20 12:33:11;;;;;;;14.43;7.25;;;;;;;;;;6173611;23;20020;-90
2023/06/20 12:35:38;;;;;;;7.68;6.32;;;;;;;;;;6172341;23;20019;-90
2023/06/20 12:38:06;;;;;;;9.68;5.95;;;;;;;;;;6168185;23;20024;-91
2023/06/20 12:40:45;;;;;;;7.45;6.10;;;;;;;;;;6166137;23;20005;-90
2023/06/20 12:43:24;;;;;;;;;;;;;;;;;;;;;
2023/06/20 12:45:57;;;;;;;6.68;4.93;;;;;;;;;;6163552;23;20044;-91
2023/06/20 12:48:26;;;;;;;6.13;5.50;;;;;;;;;;6167353;23;20029;-90
2023/06/20 12:51:15;;;;;;;9.23;4.80;;;;;;;;;;6176848;23;20017;-91
2023/06/20 12:54:00;;;;;;;;;;;;;;;;;;;;;
2023/06/20 12:56:35;;;;;;;6.57;5.38;;;;;;;;;;6172572;23;20392;-91
2023/06/20 12:59:05;;;;;;;9.10;4.82;;;;;;;;;;6151290;23;20024;-92
2023/06/20 13:01:31;;;;;;;9.60;5.75;;;;;;;;;;6175938;23;20005;-90
2023/06/20 13:07:15;;;;;;;5.13;4.10;;;;;;;;;;6246266;22;20023;-90
2023/06/20 13:09:57;;;;;;;7.88;4.72;;;;;;;;;;6110223;23;20010;-89
2023/06/20 13:12:23;;;;;;;6.15;4.97;;;;;;;;;;6138273;23;20006;-89
2023/06/20 13:14:52;;;;;;;6.53;4.35;;;;;;;;;;6108945;23;20006;-90
2023/06/20 13:17:58;;;;;;;;;;;;;;;;;;;;;
2023/06/20 13:20:34;;;;;;;8.30;5.30;;;;;;;;;;6282988;22;19990;-91
2023/06/20 13:23:27;;;;;;;;;;;;;;;;;;;;;
2023/06/20 13:26:26;;;;;;;8.10;5.07;;;;;;;;;;6297584;22;20003;-91
2023/06/20 13:29:20;;;;;;;9.15;4.95;;;;;;;;;;6288735;22;20021;-89
2023/06/20 13:31:59;;;;;;;11.65;6.22;;;;;;;;;;6272198;22;20008;-90
2023/06/20 13:34:25;;;;;;;11.18;7.15;;;;;;;;;;6271661;22;20030;-89
2023/06/20 13:37:15;;;;;;;10.15;7.45;;;;;;;;;;6256841;22;20004;-91
2023/06/20 13:39:44;;;;;;;8.45;6.90;;;;;;;;;;6253782;22;20028;-91
2023/06/20 13:42:11;;;;;;;8.23;6.75;;;;;;;;;;6261284;22;20008;-91
2023/06/20 13:44:40;;;;;;;12.30;6.93;;;;;;;;;;6261219;22;20018;-90
2023/06/20 13:47:08;;;;;;;7.72;6.75;;;;;;;;;;6285514;22;20018;-90
2023/06/20 13:49:40;;;;;;;18.45;7.72;;;;;;;;;;6285174;22;20019;-91
2023/06/20 13:52:09;;;;;;;9.43;6.30;;;;;;;;;;6283019;22;20023;-90
2023/06/20 13:54:36;;;;;;;9.32;5.90;;;;;;;;;;6259375;22;20095;-90
2023/06/20 13:57:15;;;;;;;6.93;6.20;;;;;;;;;;6283723;22;20115;-90
2023/06/20 13:59:41;;;;;;;7.78;6.40;;;;;;;;;;6258923;22;20015;-91
2023/06/20 14:02:09;;;;;;;11.07;7.03;;;;;;;;;;6258202;22;20010;-90
2023/06/20 14:04:38;;;;;;;8.52;6.30;;;;;;;;;;6256496;22;20019;-91
2023/06/20 14:07:05;;;;;;;8.10;6.50;;;;;;;;;;6251673;22;20016;-90
2023/06/20 14:09:40;;;;;;;10.40;7.15;;;;;;;;;;6254033;23;20016;-91
2023/06/20 14:12:15;;;;;;;10.07;7.10;;;;;;;;;;6277702;22;20464;-90
2023/06/20 14:14:41;;;;;;;9.65;7.60;;;;;;;;;;6252816;22;20019;-89
2023/06/20 14:17:11;;;;;;;11.98;7.68;;;;;;;;;;6248520;23;20027;-90
2023/06/20 14:19:48;;;;;;;14.60;7.60;;;;;;;;;;6249402;23;20023;-90
2023/06/20 14:22:16;;;;;;;9.80;7.35;;;;;;;;;;6223378;23;20061;-90
2023/06/20 14:24:43;;;;;;;13.48;7.82;;;;;;;;;;6225894;23;20031;-90
2023/06/20 14:27:10;;;;;;;11.25;8.13;;;;;;;;;;6225502;23;20396;-91
2023/06/20 14:29:36;;;;;;;8.38;7.25;;;;;;;;;;6225576;23;20012;-91
2023/06/20 14:32:14;;;;;;;13.43;7.50;;;;;;;;;;6229214;23;20071;-90
2023/06/20 14:34:40;;;;;;;8.38;7.20;;;;;;;;;;6224999;23;20023;-92
2023/06/20 14:37:07;;;;;;;16.17;6.85;;;;;;;;;;6249488;23;20042;-90
2023/06/20 14:39:34;;;;;;;10.60;6.95;;;;;;;;;;6247110;23;20008;-90
2023/06/20 14:42:00;;;;;;;9.75;6.55;;;;;;;;;;6252330;23;20028;-90
2023/06/20 14:44:29;;;;;;;9.00;5.93;;;;;;;;;;6237835;23;20397;-90
2023/06/20 14:46:56;;;;;;;7.88;6.35;;;;;;;;;;6247683;22;20095;-90
2023/06/20 14:49:23;;;;;;;11.07;6.28;;;;;;;;;;6248721;22;20000;-90
2023/06/20 14:51:49;;;;;;;8.35;6.65;;;;;;;;;;6249673;22;20023;-90
2023/06/20 14:54:15;;;;;;;7.65;6.60;;;;;;;;;;6248469;22;20008;-89
2023/06/20 14:56:45;;;;;;;11.20;6.97;;;;;;;;;;6248331;23;20008;-90
2023/06/20 14:59:11;;;;;;;11.52;7.10;;;;;;;;;;6249213;22;20016;-90
2023/06/20 15:01:38;;;;;;;7.57;5.93;;;;;;;;;;6247149;22;20035;-90
2023/06/20 15:04:05;;;;;;;7.60;6.78;;;;;;;;;;6249814;22;20094;-91
2023/06/20 15:06:32;;;;;;;7.25;6.28;;;;;;;;;;6222741;22;20238;-89
2023/06/20 15:08:59;;;;;;;7.97;6.45;;;;;;;;;;6227117;23;20047;-90
2023/06/20 15:11:28;;;;;;;7.13;6.05;;;;;;;;;;6225533;23;20036;-90
2023/06/20 15:13:54;;;;;;;7.13;5.95;;;;;;;;;;6222133;23;20058;-92
2023/06/20 15:16:20;;;;;;;12.20;7.22;;;;;;;;;;6221481;23;20020;-90
2023/06/20 15:18:47;;;;;;;12.57;6.88;;;;;;;;;;6226478;23;20015;-91
2023/06/20 15:21:26;;;;;;;7.97;6.78;;;;;;;;;;6220706;23;20004;-91
2023/06/20 15:23:55;;;;;;;13.75;6.30;;;;;;;;;;6225293;23;20008;-91
2023/06/20 15:26:25;;;;;;;9.60;5.72;;;;;;;;;;6222328;23;20016;-91
2023/06/20 15:28:58;;;;;;;8.63;6.65;;;;;;;;;;6225782;23;20050;-92
2023/06/20 15:31:25;;;;;;;8.73;6.22;;;;;;;;;;6226600;23;20012;-91
2023/06/20 15:33:51;;;;;;;8.65;6.43;;;;;;;;;;6224315;23;20074;-91
2023/06/20 15:36:18;;;;;;;7.78;6.72;;;;;;;;;;6223343;23;20064;-90